sensor_id;sensor_type;location;lat;lon;timestamp;temperature;humidity
14031;DHT22;7090;49.436;8.490;2023-12-29T00:00:02;10.00;99.90
14031;DHT22;7090;49.436;8.490;2023-12-29T00:02:28;9.90;99.90
14031;DHT22;7090;49.436;8.490;2023-12-29T00:04:54;9.80;99.90
14031;DHT22;7090;49.436;8.490;2023-12-29T00:07:20;9.80;99.90
14031;DHT22;7090;49.436;8.490;2023-12-29T00:09:45;9.80;99.90
14031;DHT22;7090;49.436;8.490;2023-12-29T00:12:11;9.90;99.90
14031;DHT22;7090;49.436;8.490;2023-12-29T00:14:38;9.90;99.90
14031;DHT22;7090;49.436;8.490;2023-12-29T00:17:03;10.00;99.90
14031;DHT22;7090;49.436;8.490;2023-12-29T00:19:29;10.00;99.90
14031;DHT22;7090;49.436;8.490;2023-12-29T00:21:55;10.00;99.90
14031;DHT22;7090;49.436;8.490;2023-12-29T00:24:20;10.00;99.90
14031;DHT22;7090;49.436;8.490;2023-12-29T00:26:46;10.00;99.90
14031;DHT22;7090;49.436;8.490;2023-12-29T00:29:14;10.10;99.90
14031;DHT22;7090;49.436;8.490;2023-12-29T00:31:40;10.10;99.90
14031;DHT22;7090;49.436;8.490;2023-12-29T00:34:06;10.10;99.90
14031;DHT22;7090;49.436;8.490;2023-12-29T00:36:32;10.20;99.90
14031;DHT22;7090;49.436;8.490;2023-12-29T00:38:57;10.20;99.90
14031;DHT22;7090;49.436;8.490;2023-12-29T00:41:23;10.20;99.90
14031;DHT22;7090;49.436;8.490;2023-12-29T00:43:48;10.30;99.90
14031;DHT22;7090;49.436;8.490;2023-12-29T00:46:14;10.30;99.90
14031;DHT22;7090;49.436;8.490;2023-12-29T00:48:43;10.30;99.90
14031;DHT22;7090;49.436;8.490;2023-12-29T00:51:08;10.30;99.90
14031;DHT22;7090;49.436;8.490;2023-12-29T00:53:37;10.30;99.90
14031;DHT22;7090;49.436;8.490;2023-12-29T00:56:03;10.40;99.90
14031;DHT22;7090;49.436;8.490;2023-12-29T00:58:29;10.30;99.90
14031;DHT22;7090;49.436;8.490;2023-12-29T01:00:54;10.40;99.90
14031;DHT22;7090;49.436;8.490;2023-12-29T01:03:20;10.30;99.90
14031;DHT22;7090;49.436;8.490;2023-12-29T01:05:46;10.30;99.90
14031;DHT22;7090;49.436;8.490;2023-12-29T01:08:11;10.20;99.90
14031;DHT22;7090;49.436;8.490;2023-12-29T01:10:37;10.30;99.90
14031;DHT22;7090;49.436;8.490;2023-12-29T01:13:03;10.30;99.90
14031;DHT22;7090;49.436;8.490;2023-12-29T01:15:29;10.30;99.90
14031;DHT22;7090;49.436;8.490;2023-12-29T01:17:54;10.30;99.90
14031;DHT22;7090;49.436;8.490;2023-12-29T01:20:20;10.30;99.90
14031;DHT22;7090;49.436;8.490;2023-12-29T01:22:46;10.20;99.90
14031;DHT22;7090;49.436;8.490;2023-12-29T01:25:11;10.20;99.90
14031;DHT22;7090;49.436;8.490;2023-12-29T01:27:37;10.10;99.90
14031;DHT22;7090;49.436;8.490;2023-12-29T01:30:02;10.20;99.90
14031;DHT22;7090;49.436;8.490;2023-12-29T01:32:28;10.20;99.90
14031;DHT22;7090;49.436;8.490;2023-12-29T01:34:54;10.10;99.90
14031;DHT22;7090;49.436;8.490;2023-12-29T01:37:19;10.10;99.90
14031;DHT22;7090;49.436;8.490;2023-12-29T01:39:45;10.00;99.90
14031;DHT22;7090;49.436;8.490;2023-12-29T01:42:10;10.00;99.90
14031;DHT22;7090;49.436;8.490;2023-12-29T01:44:36;9.90;99.90
14031;DHT22;7090;49.436;8.490;2023-12-29T01:47:05;9.90;99.90
14031;DHT22;7090;49.436;8.490;2023-12-29T01:49:35;9.90;99.90
14031;DHT22;7090;49.436;8.490;2023-12-29T01:52:02;9.90;99.90
14031;DHT22;7090;49.436;8.490;2023-12-29T01:54:32;10.00;99.90
14031;DHT22;7090;49.436;8.490;2023-12-29T01:57:00;9.90;99.90
14031;DHT22;7090;49.436;8.490;2023-12-29T01:59:27;9.90;99.90
14031;DHT22;7090;49.436;8.490;2023-12-29T02:01:56;9.90;99.90
14031;DHT22;7090;49.436;8.490;2023-12-29T02:04:23;9.90;99.90
14031;DHT22;7090;49.436;8.490;2023-12-29T02:06:49;9.90;99.90
14031;DHT22;7090;49.436;8.490;2023-12-29T02:09:16;9.90;99.90
14031;DHT22;7090;49.436;8.490;2023-12-29T02:11:42;10.00;99.90
14031;DHT22;7090;49.436;8.490;2023-12-29T02:14:08;10.00;99.90
14031;DHT22;7090;49.436;8.490;2023-12-29T02:21:58;10.00;99.90
14031;DHT22;7090;49.436;8.490;2023-12-29T02:24:23;10.00;99.90
14031;DHT22;7090;49.436;8.490;2023-12-29T02:26:57;10.10;99.90
14031;DHT22;7090;49.436;8.490;2023-12-29T02:29:24;10.10;99.90
14031;DHT22;7090;49.436;8.490;2023-12-29T02:31:53;10.10;99.90
14031;DHT22;7090;49.436;8.490;2023-12-29T02:34:21;10.10;99.90
14031;DHT22;7090;49.436;8.490;2023-12-29T02:36:48;10.10;99.90
14031;DHT22;7090;49.436;8.490;2023-12-29T02:39:16;10.20;99.90
14031;DHT22;7090;49.436;8.490;2023-12-29T02:41:42;10.10;99.90
14031;DHT22;7090;49.436;8.490;2023-12-29T02:44:07;10.10;99.90
14031;DHT22;7090;49.436;8.490;2023-12-29T02:46:33;10.10;99.90
14031;DHT22;7090;49.436;8.490;2023-12-29T02:48:58;10.10;99.90
14031;DHT22;7090;49.436;8.490;2023-12-29T02:51:24;10.00;99.90
14031;DHT22;7090;49.436;8.490;2023-12-29T02:53:50;10.10;99.90
14031;DHT22;7090;49.436;8.490;2023-12-29T02:56:16;10.00;99.90
14031;DHT22;7090;49.436;8.490;2023-12-29T02:58:41;10.10;99.90
14031;DHT22;7090;49.436;8.490;2023-12-29T03:01:07;10.10;99.90
14031;DHT22;7090;49.436;8.490;2023-12-29T03:03:32;10.10;99.90
14031;DHT22;7090;49.436;8.490;2023-12-29T03:05:58;10.10;99.90
14031;DHT22;7090;49.436;8.490;2023-12-29T03:08:23;10.00;99.90
14031;DHT22;7090;49.436;8.490;2023-12-29T03:10:49;10.00;99.90
14031;DHT22;7090;49.436;8.490;2023-12-29T03:13:15;10.00;99.90
14031;DHT22;7090;49.436;8.490;2023-12-29T03:15:40;10.00;99.90
14031;DHT22;7090;49.436;8.490;2023-12-29T03:18:06;10.00;99.90
14031;DHT22;7090;49.436;8.490;2023-12-29T03:20:31;10.00;99.90
14031;DHT22;7090;49.436;8.490;2023-12-29T03:22:57;10.10;99.90
14031;DHT22;7090;49.436;8.490;2023-12-29T03:25:23;10.10;99.90
14031;DHT22;7090;49.436;8.490;2023-12-29T03:27:48;10.10;99.90
14031;DHT22;7090;49.436;8.490;2023-12-29T03:30:14;10.10;99.90
14031;DHT22;7090;49.436;8.490;2023-12-29T03:32:39;10.10;99.90
14031;DHT22;7090;49.436;8.490;2023-12-29T03:35:05;10.10;99.90
14031;DHT22;7090;49.436;8.490;2023-12-29T03:37:31;10.10;99.90
14031;DHT22;7090;49.436;8.490;2023-12-29T03:39:56;10.10;99.90
14031;DHT22;7090;49.436;8.490;2023-12-29T03:42:22;10.00;99.90
14031;DHT22;7090;49.436;8.490;2023-12-29T03:44:47;10.00;99.90
14031;DHT22;7090;49.436;8.490;2023-12-29T03:47:13;10.00;99.90
14031;DHT22;7090;49.436;8.490;2023-12-29T03:49:39;10.00;99.90
14031;DHT22;7090;49.436;8.490;2023-12-29T03:52:04;10.00;99.90
14031;DHT22;7090;49.436;8.490;2023-12-29T03:54:30;10.00;99.90
14031;DHT22;7090;49.436;8.490;2023-12-29T03:56:55;10.00;99.90
14031;DHT22;7090;49.436;8.490;2023-12-29T03:59:21;10.00;99.90
14031;DHT22;7090;49.436;8.490;2023-12-29T04:01:47;10.00;99.90
14031;DHT22;7090;49.436;8.490;2023-12-29T04:04:12;10.10;99.90
14031;DHT22;7090;49.436;8.490;2023-12-29T04:06:38;10.00;99.90
14031;DHT22;7090;49.436;8.490;2023-12-29T04:09:03;10.00;99.90
14031;DHT22;7090;49.436;8.490;2023-12-29T04:11:29;10.10;99.90
14031;DHT22;7090;49.436;8.490;2023-12-29T04:13:54;10.10;99.90
14031;DHT22;7090;49.436;8.490;2023-12-29T04:16:20;10.00;99.90
14031;DHT22;7090;49.436;8.490;2023-12-29T04:18:46;10.00;99.90
14031;DHT22;7090;49.436;8.490;2023-12-29T04:21:15;9.90;99.90
14031;DHT22;7090;49.436;8.490;2023-12-29T04:23:40;9.80;99.90
14031;DHT22;7090;49.436;8.490;2023-12-29T04:26:09;9.80;99.90
14031;DHT22;7090;49.436;8.490;2023-12-29T04:28:34;9.80;99.90
14031;DHT22;7090;49.436;8.490;2023-12-29T04:31:00;9.70;99.90
14031;DHT22;7090;49.436;8.490;2023-12-29T04:33:26;9.70;99.90
14031;DHT22;7090;49.436;8.490;2023-12-29T04:35:51;9.70;99.90
14031;DHT22;7090;49.436;8.490;2023-12-29T04:38:17;9.70;99.90
14031;DHT22;7090;49.436;8.490;2023-12-29T04:40:45;9.70;99.90
14031;DHT22;7090;49.436;8.490;2023-12-29T04:43:12;9.70;99.90
14031;DHT22;7090;49.436;8.490;2023-12-29T04:45:38;9.80;99.90
14031;DHT22;7090;49.436;8.490;2023-12-29T04:48:04;9.70;99.90
14031;DHT22;7090;49.436;8.490;2023-12-29T04:50:30;9.70;99.90
14031;DHT22;7090;49.436;8.490;2023-12-29T04:52:55;9.60;99.90
14031;DHT22;7090;49.436;8.490;2023-12-29T04:55:21;9.60;99.90
14031;DHT22;7090;49.436;8.490;2023-12-29T04:57:46;9.50;99.90
14031;DHT22;7090;49.436;8.490;2023-12-29T05:00:12;9.40;99.90
14031;DHT22;7090;49.436;8.490;2023-12-29T05:02:38;9.40;99.90
14031;DHT22;7090;49.436;8.490;2023-12-29T05:05:04;9.40;99.90
14031;DHT22;7090;49.436;8.490;2023-12-29T05:07:30;9.30;99.90
14031;DHT22;7090;49.436;8.490;2023-12-29T05:09:55;9.30;99.90
14031;DHT22;7090;49.436;8.490;2023-12-29T05:12:21;9.20;99.90
14031;DHT22;7090;49.436;8.490;2023-12-29T05:14:46;9.20;99.90
14031;DHT22;7090;49.436;8.490;2023-12-29T05:17:12;9.20;99.90
14031;DHT22;7090;49.436;8.490;2023-12-29T05:19:38;9.20;99.90
14031;DHT22;7090;49.436;8.490;2023-12-29T05:22:03;9.20;99.90
14031;DHT22;7090;49.436;8.490;2023-12-29T05:24:29;9.10;99.90
14031;DHT22;7090;49.436;8.490;2023-12-29T05:26:54;9.10;99.90
14031;DHT22;7090;49.436;8.490;2023-12-29T05:29:20;9.10;99.90
14031;DHT22;7090;49.436;8.490;2023-12-29T05:31:45;9.00;99.90
14031;DHT22;7090;49.436;8.490;2023-12-29T05:34:11;9.00;99.90
14031;DHT22;7090;49.436;8.490;2023-12-29T05:36:37;8.90;99.90
14031;DHT22;7090;49.436;8.490;2023-12-29T05:39:02;8.90;99.90
14031;DHT22;7090;49.436;8.490;2023-12-29T05:41:29;8.90;99.90
14031;DHT22;7090;49.436;8.490;2023-12-29T05:43:54;8.90;99.90
14031;DHT22;7090;49.436;8.490;2023-12-29T05:46:20;8.90;99.90
14031;DHT22;7090;49.436;8.490;2023-12-29T05:48:46;9.00;99.90
14031;DHT22;7090;49.436;8.490;2023-12-29T05:51:13;9.20;99.90
14031;DHT22;7090;49.436;8.490;2023-12-29T05:53:42;9.20;99.90
14031;DHT22;7090;49.436;8.490;2023-12-29T05:56:11;9.40;99.90
14031;DHT22;7090;49.436;8.490;2023-12-29T05:58:37;9.50;99.90
14031;DHT22;7090;49.436;8.490;2023-12-29T06:01:02;9.60;99.90
14031;DHT22;7090;49.436;8.490;2023-12-29T06:03:28;9.70;99.90
14031;DHT22;7090;49.436;8.490;2023-12-29T06:05:54;9.70;99.90
14031;DHT22;7090;49.436;8.490;2023-12-29T06:08:20;9.70;99.90
14031;DHT22;7090;49.436;8.490;2023-12-29T06:10:45;9.70;99.90
14031;DHT22;7090;49.436;8.490;2023-12-29T06:13:11;9.60;99.90
14031;DHT22;7090;49.436;8.490;2023-12-29T06:15:37;9.60;99.90
14031;DHT22;7090;49.436;8.490;2023-12-29T06:18:04;9.50;99.90
14031;DHT22;7090;49.436;8.490;2023-12-29T06:20:29;9.60;99.90
14031;DHT22;7090;49.436;8.490;2023-12-29T06:22:55;9.60;99.90
14031;DHT22;7090;49.436;8.490;2023-12-29T06:25:21;9.60;99.90
14031;DHT22;7090;49.436;8.490;2023-12-29T06:27:47;9.50;99.90
14031;DHT22;7090;49.436;8.490;2023-12-29T06:30:14;9.60;99.90
14031;DHT22;7090;49.436;8.490;2023-12-29T06:32:40;9.50;99.90
14031;DHT22;7090;49.436;8.490;2023-12-29T06:35:06;9.60;99.90
14031;DHT22;7090;49.436;8.490;2023-12-29T06:37:32;9.60;99.90
14031;DHT22;7090;49.436;8.490;2023-12-29T06:39:58;9.60;99.90
14031;DHT22;7090;49.436;8.490;2023-12-29T06:42:24;9.60;99.90
14031;DHT22;7090;49.436;8.490;2023-12-29T06:44:49;9.70;99.90
14031;DHT22;7090;49.436;8.490;2023-12-29T06:47:15;9.70;99.90
14031;DHT22;7090;49.436;8.490;2023-12-29T06:49:41;9.80;99.90
14031;DHT22;7090;49.436;8.490;2023-12-29T06:52:06;9.80;99.90
14031;DHT22;7090;49.436;8.490;2023-12-29T06:54:33;9.80;99.90
14031;DHT22;7090;49.436;8.490;2023-12-29T06:56:59;9.90;99.90
14031;DHT22;7090;49.436;8.490;2023-12-29T06:59:25;9.90;99.90
14031;DHT22;7090;49.436;8.490;2023-12-29T07:01:51;10.00;99.90
14031;DHT22;7090;49.436;8.490;2023-12-29T07:04:16;10.20;99.90
14031;DHT22;7090;49.436;8.490;2023-12-29T07:06:42;10.10;99.90
14031;DHT22;7090;49.436;8.490;2023-12-29T07:09:08;10.00;99.90
14031;DHT22;7090;49.436;8.490;2023-12-29T07:11:35;10.10;99.90
14031;DHT22;7090;49.436;8.490;2023-12-29T07:14:01;10.10;99.90
14031;DHT22;7090;49.436;8.490;2023-12-29T07:16:27;10.10;99.90
14031;DHT22;7090;49.436;8.490;2023-12-29T07:18:52;10.10;99.90
14031;DHT22;7090;49.436;8.490;2023-12-29T07:21:18;10.10;99.90
14031;DHT22;7090;49.436;8.490;2023-12-29T07:23:44;10.10;99.90
14031;DHT22;7090;49.436;8.490;2023-12-29T07:26:09;10.10;99.90
14031;DHT22;7090;49.436;8.490;2023-12-29T07:28:35;10.10;99.90
14031;DHT22;7090;49.436;8.490;2023-12-29T07:31:01;10.20;99.90
14031;DHT22;7090;49.436;8.490;2023-12-29T07:33:27;10.20;99.90
14031;DHT22;7090;49.436;8.490;2023-12-29T07:35:53;10.30;99.90
14031;DHT22;7090;49.436;8.490;2023-12-29T07:38:18;10.30;99.90
14031;DHT22;7090;49.436;8.490;2023-12-29T07:40:44;10.30;99.90
14031;DHT22;7090;49.436;8.490;2023-12-29T07:43:09;10.30;99.90
14031;DHT22;7090;49.436;8.490;2023-12-29T07:45:36;10.30;99.90
14031;DHT22;7090;49.436;8.490;2023-12-29T07:48:03;10.30;99.90
14031;DHT22;7090;49.436;8.490;2023-12-29T07:50:29;10.30;99.90
14031;DHT22;7090;49.436;8.490;2023-12-29T07:52:54;10.40;99.90
14031;DHT22;7090;49.436;8.490;2023-12-29T07:55:20;10.40;99.90
14031;DHT22;7090;49.436;8.490;2023-12-29T07:57:46;10.50;99.90
14031;DHT22;7090;49.436;8.490;2023-12-29T08:00:14;10.50;99.90
14031;DHT22;7090;49.436;8.490;2023-12-29T08:02:40;10.50;99.90
14031;DHT22;7090;49.436;8.490;2023-12-29T08:05:07;10.50;99.90
14031;DHT22;7090;49.436;8.490;2023-12-29T08:07:36;10.60;99.90
14031;DHT22;7090;49.436;8.490;2023-12-29T08:10:04;10.70;99.90
14031;DHT22;7090;49.436;8.490;2023-12-29T08:12:30;10.60;99.90
14031;DHT22;7090;49.436;8.490;2023-12-29T08:14:55;10.60;99.90
14031;DHT22;7090;49.436;8.490;2023-12-29T08:17:22;10.60;99.90
14031;DHT22;7090;49.436;8.490;2023-12-29T08:19:47;10.60;99.90
14031;DHT22;7090;49.436;8.490;2023-12-29T08:22:13;10.70;99.90
14031;DHT22;7090;49.436;8.490;2023-12-29T08:24:40;10.70;99.90
14031;DHT22;7090;49.436;8.490;2023-12-29T08:27:09;10.70;99.90
14031;DHT22;7090;49.436;8.490;2023-12-29T08:29:36;10.70;99.90
14031;DHT22;7090;49.436;8.490;2023-12-29T08:32:01;10.70;99.90
14031;DHT22;7090;49.436;8.490;2023-12-29T08:34:27;10.50;99.90
14031;DHT22;7090;49.436;8.490;2023-12-29T08:36:53;10.20;99.90
14031;DHT22;7090;49.436;8.490;2023-12-29T08:39:18;10.00;99.90
14031;DHT22;7090;49.436;8.490;2023-12-29T08:41:44;10.00;99.90
14031;DHT22;7090;49.436;8.490;2023-12-29T08:44:12;9.90;99.90
14031;DHT22;7090;49.436;8.490;2023-12-29T08:46:37;9.80;99.90
14031;DHT22;7090;49.436;8.490;2023-12-29T08:49:03;9.80;99.90
14031;DHT22;7090;49.436;8.490;2023-12-29T08:51:28;9.80;99.90
14031;DHT22;7090;49.436;8.490;2023-12-29T08:53:55;9.80;99.90
14031;DHT22;7090;49.436;8.490;2023-12-29T08:56:21;9.80;99.90
14031;DHT22;7090;49.436;8.490;2023-12-29T08:58:46;9.80;99.90
14031;DHT22;7090;49.436;8.490;2023-12-29T09:01:12;9.80;99.90
14031;DHT22;7090;49.436;8.490;2023-12-29T09:03:37;9.80;99.90
14031;DHT22;7090;49.436;8.490;2023-12-29T09:06:04;9.80;99.90
14031;DHT22;7090;49.436;8.490;2023-12-29T09:08:30;9.70;99.90
14031;DHT22;7090;49.436;8.490;2023-12-29T09:10:55;9.70;99.90
14031;DHT22;7090;49.436;8.490;2023-12-29T09:13:21;9.70;99.90
14031;DHT22;7090;49.436;8.490;2023-12-29T09:15:50;9.70;99.90
14031;DHT22;7090;49.436;8.490;2023-12-29T09:18:16;9.70;99.90
14031;DHT22;7090;49.436;8.490;2023-12-29T09:20:41;9.80;99.90
14031;DHT22;7090;49.436;8.490;2023-12-29T09:23:07;9.80;99.90
14031;DHT22;7090;49.436;8.490;2023-12-29T09:25:33;9.80;99.90
14031;DHT22;7090;49.436;8.490;2023-12-29T09:27:58;9.80;99.90
14031;DHT22;7090;49.436;8.490;2023-12-29T09:30:24;9.90;99.90
14031;DHT22;7090;49.436;8.490;2023-12-29T09:32:50;10.00;99.90
14031;DHT22;7090;49.436;8.490;2023-12-29T09:35:15;10.00;99.90
14031;DHT22;7090;49.436;8.490;2023-12-29T09:37:42;10.00;99.90
14031;DHT22;7090;49.436;8.490;2023-12-29T09:40:10;10.10;99.90
14031;DHT22;7090;49.436;8.490;2023-12-29T09:42:37;10.20;99.90
14031;DHT22;7090;49.436;8.490;2023-12-29T09:45:08;10.30;99.90
14031;DHT22;7090;49.436;8.490;2023-12-29T09:47:38;10.30;99.90
14031;DHT22;7090;49.436;8.490;2023-12-29T09:50:06;10.30;99.90
14031;DHT22;7090;49.436;8.490;2023-12-29T09:52:33;10.40;99.90
14031;DHT22;7090;49.436;8.490;2023-12-29T09:54:59;10.40;99.90
14031;DHT22;7090;49.436;8.490;2023-12-29T09:57:26;10.50;99.90
14031;DHT22;7090;49.436;8.490;2023-12-29T09:59:53;10.60;99.90
14031;DHT22;7090;49.436;8.490;2023-12-29T10:02:20;10.70;99.90
14031;DHT22;7090;49.436;8.490;2023-12-29T10:04:47;10.90;99.90
14031;DHT22;7090;49.436;8.490;2023-12-29T10:07:25;11.20;99.90
14031;DHT22;7090;49.436;8.490;2023-12-29T10:09:58;11.50;99.90
14031;DHT22;7090;49.436;8.490;2023-12-29T10:12:34;11.70;1.00
14031;DHT22;7090;49.436;8.490;2023-12-29T10:15:56;11.90;1.00
14031;DHT22;7090;49.436;8.490;2023-12-29T10:18:11;12.00;1.00
14031;DHT22;7090;49.436;8.490;2023-12-29T10:21:27;12.00;1.00
14031;DHT22;7090;49.436;8.490;2023-12-29T10:23:53;12.10;1.00
14031;DHT22;7090;49.436;8.490;2023-12-29T10:26:22;12.10;1.00
14031;DHT22;7090;49.436;8.490;2023-12-29T10:28:48;12.10;1.00
14031;DHT22;7090;49.436;8.490;2023-12-29T10:31:15;12.20;1.00
14031;DHT22;7090;49.436;8.490;2023-12-29T10:33:41;12.20;1.00
14031;DHT22;7090;49.436;8.490;2023-12-29T10:36:07;12.30;1.00
14031;DHT22;7090;49.436;8.490;2023-12-29T10:38:34;12.30;1.00
14031;DHT22;7090;49.436;8.490;2023-12-29T10:41:16;12.30;1.00
14031;DHT22;7090;49.436;8.490;2023-12-29T10:43:43;12.40;1.00
14031;DHT22;7090;49.436;8.490;2023-12-29T10:46:11;12.40;1.00
14031;DHT22;7090;49.436;8.490;2023-12-29T10:48:37;12.50;1.00
14031;DHT22;7090;49.436;8.490;2023-12-29T10:51:03;12.60;1.00
14031;DHT22;7090;49.436;8.490;2023-12-29T10:53:38;12.60;1.00
14031;DHT22;7090;49.436;8.490;2023-12-29T10:56:05;12.60;1.00
14031;DHT22;7090;49.436;8.490;2023-12-29T10:58:35;12.80;1.00
14031;DHT22;7090;49.436;8.490;2023-12-29T11:01:13;12.90;1.00
14031;DHT22;7090;49.436;8.490;2023-12-29T11:03:40;12.90;1.00
14031;DHT22;7090;49.436;8.490;2023-12-29T11:06:06;12.90;1.00
14031;DHT22;7090;49.436;8.490;2023-12-29T11:08:35;13.00;1.00
14031;DHT22;7090;49.436;8.490;2023-12-29T11:11:01;13.10;1.00
14031;DHT22;7090;49.436;8.490;2023-12-29T11:13:28;13.00;1.00
14031;DHT22;7090;49.436;8.490;2023-12-29T11:15:55;13.00;1.00
14031;DHT22;7090;49.436;8.490;2023-12-29T11:18:21;12.90;1.00
14031;DHT22;7090;49.436;8.490;2023-12-29T11:20:47;13.10;1.00
14031;DHT22;7090;49.436;8.490;2023-12-29T11:23:13;13.50;1.00
14031;DHT22;7090;49.436;8.490;2023-12-29T11:25:39;13.80;1.00
14031;DHT22;7090;49.436;8.490;2023-12-29T11:28:08;13.80;1.00
14031;DHT22;7090;49.436;8.490;2023-12-29T11:30:35;14.00;1.00
14031;DHT22;7090;49.436;8.490;2023-12-29T11:33:15;14.00;1.00
14031;DHT22;7090;49.436;8.490;2023-12-29T11:43:37;14.10;1.00
14031;DHT22;7090;49.436;8.490;2023-12-29T11:46:03;14.20;1.00
14031;DHT22;7090;49.436;8.490;2023-12-29T11:48:53;14.20;1.00
14031;DHT22;7090;49.436;8.490;2023-12-29T11:51:35;14.00;1.00
14031;DHT22;7090;49.436;8.490;2023-12-29T11:54:02;14.20;1.00
14031;DHT22;7090;49.436;8.490;2023-12-29T11:56:35;14.00;1.00
14031;DHT22;7090;49.436;8.490;2023-12-29T11:59:18;14.00;1.00
14031;DHT22;7090;49.436;8.490;2023-12-29T12:01:47;14.00;1.00
14031;DHT22;7090;49.436;8.490;2023-12-29T12:07:05;14.20;1.00
14031;DHT22;7090;49.436;8.490;2023-12-29T12:09:32;14.60;1.00
14031;DHT22;7090;49.436;8.490;2023-12-29T12:12:01;14.60;1.00
14031;DHT22;7090;49.436;8.490;2023-12-29T12:14:50;14.80;1.00
14031;DHT22;7090;49.436;8.490;2023-12-29T12:17:32;14.90;1.00
14031;DHT22;7090;49.436;8.490;2023-12-29T12:20:04;14.60;1.00
14031;DHT22;7090;49.436;8.490;2023-12-29T12:22:32;14.20;1.00
14031;DHT22;7090;49.436;8.490;2023-12-29T12:24:59;13.90;1.00
14031;DHT22;7090;49.436;8.490;2023-12-29T12:27:26;13.70;1.00
14031;DHT22;7090;49.436;8.490;2023-12-29T12:29:56;13.70;1.00
14031;DHT22;7090;49.436;8.490;2023-12-29T12:32:27;13.60;1.00
14031;DHT22;7090;49.436;8.490;2023-12-29T12:34:53;13.60;1.00
14031;DHT22;7090;49.436;8.490;2023-12-29T12:37:24;13.60;1.00
14031;DHT22;7090;49.436;8.490;2023-12-29T12:39:50;13.50;1.00
14031;DHT22;7090;49.436;8.490;2023-12-29T12:42:16;13.40;1.00
14031;DHT22;7090;49.436;8.490;2023-12-29T12:45:01;13.40;1.00
14031;DHT22;7090;49.436;8.490;2023-12-29T12:47:37;13.30;1.00
14031;DHT22;7090;49.436;8.490;2023-12-29T12:50:05;13.30;1.00
14031;DHT22;7090;49.436;8.490;2023-12-29T12:52:35;13.30;1.00
14031;DHT22;7090;49.436;8.490;2023-12-29T12:55:02;13.20;1.00
14031;DHT22;7090;49.436;8.490;2023-12-29T12:57:28;13.20;1.00
14031;DHT22;7090;49.436;8.490;2023-12-29T12:59:54;13.10;1.00
14031;DHT22;7090;49.436;8.490;2023-12-29T13:02:21;13.10;1.00
14031;DHT22;7090;49.436;8.490;2023-12-29T13:04:47;13.20;1.00
14031;DHT22;7090;49.436;8.490;2023-12-29T13:07:16;13.10;1.00
14031;DHT22;7090;49.436;8.490;2023-12-29T13:09:43;13.10;1.00
14031;DHT22;7090;49.436;8.490;2023-12-29T13:12:13;13.30;1.00
14031;DHT22;7090;49.436;8.490;2023-12-29T13:14:39;13.20;1.00
14031;DHT22;7090;49.436;8.490;2023-12-29T13:17:06;13.10;1.00
14031;DHT22;7090;49.436;8.490;2023-12-29T13:19:32;13.00;1.00
14031;DHT22;7090;49.436;8.490;2023-12-29T13:22:00;13.00;1.00
14031;DHT22;7090;49.436;8.490;2023-12-29T13:24:26;13.00;1.00
14031;DHT22;7090;49.436;8.490;2023-12-29T13:26:55;12.80;1.00
14031;DHT22;7090;49.436;8.490;2023-12-29T13:29:24;12.80;1.00
14031;DHT22;7090;49.436;8.490;2023-12-29T13:31:53;12.80;1.00
14031;DHT22;7090;49.436;8.490;2023-12-29T13:37:25;12.50;1.00
14031;DHT22;7090;49.436;8.490;2023-12-29T13:42:24;12.40;1.00
14031;DHT22;7090;49.436;8.490;2023-12-29T13:44:52;12.50;1.00
14031;DHT22;7090;49.436;8.490;2023-12-29T13:47:18;12.50;1.00
14031;DHT22;7090;49.436;8.490;2023-12-29T13:49:46;12.50;1.00
14031;DHT22;7090;49.436;8.490;2023-12-29T13:52:13;12.50;1.00
14031;DHT22;7090;49.436;8.490;2023-12-29T13:54:41;12.50;1.00
14031;DHT22;7090;49.436;8.490;2023-12-29T13:57:10;12.50;1.00
14031;DHT22;7090;49.436;8.490;2023-12-29T13:59:36;12.50;1.00
14031;DHT22;7090;49.436;8.490;2023-12-29T14:02:24;12.50;1.00
14031;DHT22;7090;49.436;8.490;2023-12-29T14:05:23;12.50;1.00
14031;DHT22;7090;49.436;8.490;2023-12-29T14:10:30;12.50;1.00
14031;DHT22;7090;49.436;8.490;2023-12-29T14:13:09;12.50;1.00
14031;DHT22;7090;49.436;8.490;2023-12-29T14:15:37;12.50;1.00
14031;DHT22;7090;49.436;8.490;2023-12-29T14:20:41;12.40;1.00
14031;DHT22;7090;49.436;8.490;2023-12-29T14:23:07;12.50;1.00
14031;DHT22;7090;49.436;8.490;2023-12-29T14:25:34;12.40;1.00
14031;DHT22;7090;49.436;8.490;2023-12-29T14:28:23;12.30;1.00
14031;DHT22;7090;49.436;8.490;2023-12-29T14:30:48;12.30;1.00
14031;DHT22;7090;49.436;8.490;2023-12-29T14:33:13;12.30;1.00
14031;DHT22;7090;49.436;8.490;2023-12-29T14:35:39;12.30;1.00
14031;DHT22;7090;49.436;8.490;2023-12-29T14:38:05;12.10;1.00
14031;DHT22;7090;49.436;8.490;2023-12-29T14:40:30;12.10;1.00
14031;DHT22;7090;49.436;8.490;2023-12-29T14:43:00;12.10;1.00
14031;DHT22;7090;49.436;8.490;2023-12-29T14:45:25;12.10;1.00
14031;DHT22;7090;49.436;8.490;2023-12-29T14:47:51;12.00;1.00
14031;DHT22;7090;49.436;8.490;2023-12-29T14:50:17;11.90;1.00
14031;DHT22;7090;49.436;8.490;2023-12-29T14:52:42;11.90;1.00
14031;DHT22;7090;49.436;8.490;2023-12-29T14:55:08;11.90;1.00
14031;DHT22;7090;49.436;8.490;2023-12-29T14:57:33;11.90;1.00
14031;DHT22;7090;49.436;8.490;2023-12-29T14:59:59;11.90;1.00
14031;DHT22;7090;49.436;8.490;2023-12-29T15:02:24;11.90;1.00
14031;DHT22;7090;49.436;8.490;2023-12-29T15:04:50;11.90;1.00
14031;DHT22;7090;49.436;8.490;2023-12-29T15:07:16;11.90;1.00
14031;DHT22;7090;49.436;8.490;2023-12-29T15:09:43;11.80;1.00
14031;DHT22;7090;49.436;8.490;2023-12-29T15:12:09;11.80;1.00
14031;DHT22;7090;49.436;8.490;2023-12-29T15:14:34;11.70;1.00
14031;DHT22;7090;49.436;8.490;2023-12-29T15:17:00;11.60;1.00
14031;DHT22;7090;49.436;8.490;2023-12-29T15:19:25;11.60;1.00
14031;DHT22;7090;49.436;8.490;2023-12-29T15:21:51;11.50;40.00
14031;DHT22;7090;49.436;8.490;2023-12-29T15:24:21;11.50;63.00
14031;DHT22;7090;49.436;8.490;2023-12-29T15:26:47;11.50;31.60
14031;DHT22;7090;49.436;8.490;2023-12-29T15:29:13;11.40;59.60
14031;DHT22;7090;49.436;8.490;2023-12-29T15:31:42;11.40;38.80
14031;DHT22;7090;49.436;8.490;2023-12-29T15:34:09;11.40;66.70
14031;DHT22;7090;49.436;8.490;2023-12-29T15:36:35;11.30;99.90
14031;DHT22;7090;49.436;8.490;2023-12-29T15:39:00;11.30;99.90
14031;DHT22;7090;49.436;8.490;2023-12-29T15:41:26;11.30;99.90
14031;DHT22;7090;49.436;8.490;2023-12-29T15:43:52;11.30;99.90
14031;DHT22;7090;49.436;8.490;2023-12-29T15:46:18;11.20;99.90
14031;DHT22;7090;49.436;8.490;2023-12-29T15:48:47;11.20;99.90
14031;DHT22;7090;49.436;8.490;2023-12-29T15:51:13;11.20;99.90
14031;DHT22;7090;49.436;8.490;2023-12-29T15:53:39;11.20;99.90
14031;DHT22;7090;49.436;8.490;2023-12-29T15:56:15;11.20;99.90
14031;DHT22;7090;49.436;8.490;2023-12-29T15:58:41;11.20;99.90
14031;DHT22;7090;49.436;8.490;2023-12-29T16:01:06;11.20;99.90
14031;DHT22;7090;49.436;8.490;2023-12-29T16:03:32;11.20;99.90
14031;DHT22;7090;49.436;8.490;2023-12-29T16:05:58;11.20;99.90
14031;DHT22;7090;49.436;8.490;2023-12-29T16:08:26;11.30;99.90
14031;DHT22;7090;49.436;8.490;2023-12-29T16:10:52;11.20;99.90
14031;DHT22;7090;49.436;8.490;2023-12-29T16:13:18;11.20;99.90
14031;DHT22;7090;49.436;8.490;2023-12-29T16:15:44;11.20;99.90
14031;DHT22;7090;49.436;8.490;2023-12-29T16:18:13;11.10;99.90
14031;DHT22;7090;49.436;8.490;2023-12-29T16:20:39;11.10;99.90